Jemez Springs, Valles Caldera, New Mexico Weather observations

Data are for 10 minute period ending at time listed.
 Day   Time   Solar   Ave.   Ave.  Ave.  Vector  Max.   Baro.   Total    
  of    of     Rad.   Air    Rel.  Wind   Wind   Wind  Press.  Precip.   
Year   Day            Temp.  Hum.  Speed  Dir.   Gust                    
2014   (MST)  Kw/m2    F      %     mph   deg.    mph    mb.     in.     
-------------------------------------------------------------------------
 232    8:30   0.27   69.3    53    4.7   323    10.2   809.2    0.00 
 232    8:40   0.51   69.5    52    5.6   345     9.6   809.3    0.00 
 232    8:50   0.45   71.1    50    4.8    34     9.6   809.2    0.00 
 232    9:00   0.42   71.5    49    3.6    51     8.4   809.2    0.00 
 232    9:10   0.35   70.9    50    5.1   338    13.7   809.5    0.00 
 232    9:20   0.34   70.9    48    4.7     3     9.0   809.5    0.00 
 232    9:30   0.46   71.5    47    5.3   324    11.9   809.6    0.00 
 232    9:40   0.75   73.6    44    3.7    73     9.6   809.5    0.00 
 232    9:50   0.87   74.9    41    6.4    66    11.3   809.3    0.00 
 232   10:00   0.86   75.8    39    5.8    40    10.8   809.3    0.00 
 232   10:10   0.90   76.4    37    4.8    26    10.8   809.4    0.00 
 232   10:20   0.64   76.4    36    6.6    42    13.1   809.4    0.00 
 232   10:30   0.69   76.0    36    6.2    19    11.3   809.4    0.00 
 232   10:40   0.18   74.5    37    4.8    84    11.3   809.4    0.00 
 232   10:50   0.27   74.4    39    5.0   349    10.2   809.4    0.00 
 232   11:00   0.61   74.9    37    3.8    63     9.6   809.3    0.00 
 232   11:10   1.00   78.0    33    4.0   104    10.2   809.1    0.00 
 232   11:20   0.16   76.9    34    6.2    58    13.7   809.1    0.00 
 232   11:30   0.96   77.5    34    2.7    67     7.2   809.0    0.00 
 232   11:40   1.01   78.6    32    8.5    40    18.5   809.0    0.00 
 232   11:50   1.00   78.1    31    5.7   111    14.9   809.0    0.00 
 232   12:00   1.05   80.9    28    5.9   113    11.3   808.9    0.00 
 232   12:10   1.01   81.7    26    6.2   350    14.3   808.9    0.00 
 232   12:20   0.75   80.1    26    6.1    31    14.9   808.9    0.00 
 232   12:30   1.01   81.0    26    3.9    84     8.4   808.8    0.00 
 232   12:40   0.71   80.6    26    6.1    13    10.8   808.9    0.00 
 232   12:50   0.59   80.0    26    6.6    75    18.5   808.8    0.00 
 232   13:00   0.58   80.1    25    3.6    65     9.6   809.0    0.00 
 232   13:10   0.82   79.8    25    5.4    58    11.3   808.8    0.00 
 232   13:20   0.70   80.1    25    4.9   227    10.8   808.8    0.00 
 232   13:30   0.51   81.3    24    4.6   160    10.8   808.7    0.00 
 232   13:40   0.45   80.1    25    3.4     6     7.8   808.6    0.00 
 232   13:50   0.53   81.3    23    3.4   190     7.8   808.6    0.00 
 232   14:00   1.00   81.6    22    5.8    13    13.1   808.5    0.00 
 232   14:10   0.65   82.0    23    7.0   261    22.1   808.5    0.00 
 232   14:20   0.49   80.4    24    6.2   214    13.1   808.6    0.00 
 232   14:30   0.65   79.6    26    5.9   139    14.3   808.6    0.00 
 232   14:40   0.36   80.1    26    5.5   152    12.5   808.6    0.00 
 232   14:50   0.31   78.8    26    4.1    60    10.5   808.6    0.00 
 232   15:00   0.42   79.3    26    7.5   156    17.3   808.5    0.00 
 232   15:10   0.22   78.0    27    6.5   164    11.9   808.5    0.00 
 232   15:20   0.28   78.4    27    5.4    54     9.6   808.4    0.00 
 232   15:30   0.24   78.2    26    4.9   102    15.5   808.4    0.00 
 232   15:40   0.22   77.8    27    5.8    42    11.3   808.3    0.00 
 232   15:50   0.21   77.7    27    4.8    30     9.6   808.2    0.00 
 232   16:00   0.20   77.5    28    6.5    40    14.9   808.1    0.00 
 232   16:10   0.48   78.7    27    7.1    48    11.3   808.1    0.00 
 232   16:20   0.47   79.6    26    7.4    47    16.1   808.2    0.00 
 232   16:30   0.42   79.5    26    5.1    64    14.9   808.2    0.00 
 232   16:40   0.39   79.3    26    6.9    53    14.9   808.2    0.00 
 232   16:50   0.35   79.1    26    6.7    35    17.3   808.2    0.00 
 232   17:00   0.24   79.0    26    5.5    45     9.6   808.1    0.00 
 232   17:10   0.28   78.9    26    3.9    40    11.3   808.0    0.00 
 232   17:20   0.15   78.7    26    4.7    19     8.4   808.0    0.00 
 232   17:30   0.02   77.2    27    4.7    61    11.9   808.0    0.00 
 232   17:40   0.02   76.4    28    5.3    18    12.5   808.1    0.00 
 232   17:50   0.02   75.9    28    5.5    36    11.3   808.1    0.00 
 232   18:00   0.02   75.4    30    4.0    21     9.0   808.0    0.00 
 232   18:10   0.02   74.8    31    3.0    21     6.0   807.9    0.00 
 232   18:20   0.02   73.5    34    1.0   351     3.0   807.9    0.00 
 232   18:30   0.02   71.7    38    0.0     0     0.0   807.8    0.00 
 232   18:40   0.01   70.3    41    1.6    29     4.2   807.8    0.00 
 232   18:50   0.01   69.5    43    3.1    35     4.8   807.7    0.00 
 232   19:00   0.00   68.9    43    4.4    22     6.0   807.7    0.00 
 232   19:10   0.00   68.0    45    4.5    23     6.6   807.7    0.00 
 232   19:20   0.00   67.1    46    3.5    26     5.4   807.8    0.00 
 232   19:30   0.00   66.4    48    3.6    24     6.0   808.0    0.00 
 232   19:40   0.00   65.9    48    3.7    30     6.0   808.0    0.00 
 232   19:50   0.00   66.0    47    5.7    15     9.0   808.2    0.00 
 232   20:00   0.00   65.8    46    5.9    10     9.0   808.4    0.00 
 232   20:10   0.00   65.9    46    6.3     2     9.6   808.6    0.00 
 232   20:20   0.00   65.9    45    5.6     1     9.0   808.8    0.00 
 232   20:30   0.00   65.6    46    5.9     4     9.6   808.8    0.00 
 232   20:40   0.00   65.4    46    5.6   358    10.2   809.0    0.00 
 232   20:50   0.00   65.0    46    6.0     0     9.0   809.2    0.00 
 232   21:00   0.00   64.7    47    7.0   358    11.3   809.3    0.00 
 232   21:10   0.00   64.4    47    7.4   356    12.5   809.3    0.00 
 232   21:20   0.00   63.8    48    6.4     2    10.8   809.5    0.00 
 232   21:30   0.00   63.1    49    6.4    10    11.9   809.5    0.00 
 232   21:40   0.00   62.9    49    6.5    11    11.3   809.5    0.00 
 232   21:50   0.00   62.8    49    6.6     8    10.8   809.6    0.00 
 232   22:00   0.00   62.6    49    6.6     4    10.8   809.7    0.00 
 232   22:10   0.00   62.3    49    7.2     4    11.9   809.7    0.00 
 232   22:20   0.00   62.0    50    5.9     2    10.2   809.7    0.00 
 232   22:30   0.00   61.6    50    6.4     1    10.8   809.8    0.00 
 232   22:40   0.00   61.5    50    5.9     1     9.6   809.9    0.00 
 232   22:50   0.00   61.4    50    7.0     1    11.9   809.9    0.00 
 232   23:00   0.00   61.1    50    6.5     8    11.9   810.0    0.00 
 232   23:10   0.00   60.8    51    6.0     7    10.8   810.2    0.00 
 232   23:20   0.00   60.7    51    6.8     1    10.8   810.2    0.00 
 232   23:30   0.00   60.8    50    6.5     6     9.6   810.2    0.00 
 232   23:40   0.00   60.6    50    6.4     5    11.9   810.3    0.00 
 232   23:50   0.00   60.6    50    6.6     1    11.9   810.4    0.00 
 233    0:00   0.00   60.5    50    6.6     2    11.3   810.5    0.00 
 233    0:10   0.00   60.3    50    6.8     6    11.9   810.5    0.00 
 233    0:20   0.00   60.2    50    6.8     3    11.3   810.4    0.00 
 233    0:30   0.00   59.9    51    6.5   358    10.8   810.4    0.00 
 233    0:40   0.00   59.8    51    7.9     8    13.1   810.3    0.00 
 233    0:50   0.00   59.9    50    8.1     2    14.3   810.2    0.00 
 233    1:00   0.00   59.7    50    8.8     8    16.1   810.2    0.00 
 233    1:10   0.00   59.4    51    8.6     5    16.1   810.1    0.00 
 233    1:20   0.00   59.5    51    8.9    12    15.5   810.1    0.00 
 233    1:30   0.00   59.5    51    8.7     2    14.3   810.1    0.00 
 233    1:40   0.00   59.3    51    8.7     0    13.7   810.0    0.00 
 233    1:50   0.00   59.1    51    9.8     2    16.1   810.0    0.00 
 233    2:00   0.00   58.9    51    8.4   358    14.9   810.1    0.00 
 233    2:10   0.00   58.7    51    8.1     7    14.3   810.1    0.00 
 233    2:20   0.00   58.6    51    8.9     5    15.5   810.1    0.00 
 233    2:30   0.00   58.3    52    9.5     6    14.3   810.1    0.00 
 233    2:40   0.00   58.2    52    8.5     7    11.9   810.1    0.00 
 233    2:50   0.00   58.2    52    7.6     1    12.5   810.2    0.00 
 233    3:00   0.00   58.1    52    7.5     6    12.5   810.3    0.00 
 233    3:10   0.00   58.0    52    8.5     7    13.1   810.4    0.00 
 233    3:20   0.00   57.8    52    7.9     8    11.9   810.5    0.00 
 233    3:30   0.00   57.6    53    7.7    10    13.1   810.6    0.00 
 233    3:40   0.00   57.5    53    8.5    15    12.5   810.7    0.00 
 233    3:50   0.00   57.2    54    8.0    15    13.1   810.8    0.00 
 233    4:00   0.00   57.1    54    7.4     9    12.5   810.6    0.00 
 233    4:10   0.00   56.9    54    7.8    15    11.3   810.8    0.00 
 233    4:20   0.00   56.9    54    8.0    14    13.1   810.8    0.00 
 233    4:30   0.00   56.8    53    7.6    10    13.1   810.7    0.00 
 233    4:40   0.00   57.0    53    8.0    10    13.7   810.8    0.00 
 233    4:50   0.00   56.6    54    8.3    19    12.5   810.8    0.00 
 233    5:00   0.00   56.1    55    7.9    21    13.1   810.8    0.00 
 233    5:10   0.00   55.9    56    8.5    20    13.1   810.9    0.00 
 233    5:20   0.00   55.8    55    8.0    18    12.5   811.0    0.00 
 233    5:30   0.00   56.0    55    7.8    17    12.5   811.2    0.00 
 233    5:40   0.01   56.1    54    7.8    19    11.3   811.2    0.00 
 233    5:50   0.01   56.0    54    7.4    18    11.9   811.3    0.00 
 233    6:00   0.01   55.9    54    7.4    15    11.9   811.4    0.00 
 233    6:10   0.01   55.6    55    7.9    13    11.9   811.5    0.00 
 233    6:20   0.02   55.5    56    7.3    15    11.9   811.6    0.00 
 233    6:30   0.02   55.9    54    8.1    12    11.3   811.6    0.00 
 233    6:40   0.02   56.0    54    7.4    14    10.2   811.6    0.00 
 233    6:50   0.11   56.7    53    7.4    13    10.8   811.6    0.00 
 233    7:00   0.27   58.9    50    7.0    19    10.2   811.7    0.00 
 233    7:10   0.30   61.1    46    7.2    18    10.2   811.6    0.00 
 233    7:20   0.34   62.8    44    6.6    19    10.2   811.6    0.00 
 233    7:30   0.38   64.6    42    6.0    20    10.2   811.6    0.00 
 233    7:40   0.42   66.3    40    5.3    17     8.4   811.6    0.00 
 233    7:50   0.45   67.9    38    5.3    19     7.8   811.4    0.00 
 233    8:00   0.49   69.6    35    4.2    18     6.6   811.4    0.00 
 233    8:10   0.53   72.7    32    1.7    30     4.8   811.3    0.00 
 233    8:20   0.56   73.7    29    4.3   179     6.6   811.1    0.00 

Return to Jemez Springs, Valles Caldera graphs page.


Western Regional Climate Center,wrcc@dri.edu